Olathe, Kansas
Current Conditions -  °F | °C
As of 2:53 AM on Wednesday 26 Nov 2014 (Local Time) from KIXD Reporting Station
Overcast Overcast  
Wind Chill: 31°   Ceiling: 5000
Heat Index: 38°   Visibility: 10mi
Dew Point: 24°   Wind: 10mph
Humidity: 57%   Direction: 210°SSW
Pressure: 29.94"   Gusts: NA
Location:  38.88°N, 94.82°W
Report Text: KIXD 260853Z AUTO 21009KT 10SM BKN050 OVC065 03/M04 A2994 RMK AO2 SLP144 T00331044 55009
Loading
Personal Weather Stations






























Interactive Weather Map New forecast layout! Learn more

10-Day Weather Forecast

Advertisements
Track Severe Weather on mobile